Time;durP1;ratioP1;P1;durP2;ratioP2;P2;SDS_P1;SDS_P2;PMS_P1;PMS_P2;Temp;Humidity;BMP_temperature;BMP_pressure;BME280_temperature;BME280_humidity;BME280_pressure;Samples;Min_cycle;Max_cycle;Signal;HPM_P1;HPM_P2
2022/08/17 00:06:52;;;;;;;23.50;15.80;;;;;;;23.45;100.00;99862.31;655656;1277;141040;-79
2022/08/17 00:21:59;;;;;;;22.60;16.10;;;;;;;23.45;100.00;99858.75;656652;1277;140427;-79
2022/08/17 00:37:22;;;;;;;21.20;15.10;;;;;;;23.43;100.00;99863.27;655775;1277;140797;-80
2022/08/17 00:52:31;;;;;;;21.60;15.00;;;;;;;23.11;100.00;99859.38;655965;1277;139654;-80
2022/08/17 01:07:34;;;;;;;22.10;15.80;;;;;;;23.09;100.00;99867.16;655382;1277;140769;-80
2022/08/17 01:22:40;;;;;;;25.90;16.30;;;;;;;22.92;100.00;99876.58;655891;1277;139417;-80
2022/08/17 01:37:43;;;;;;;27.60;17.90;;;;;;;22.97;100.00;99888.85;656146;1277;139775;-80
2022/08/17 01:52:50;;;;;;;26.60;18.70;;;;;;;22.80;100.00;99889.73;655873;1277;141450;-80
2022/08/17 02:07:53;;;;;;;35.10;22.10;;;;;;;22.78;100.00;99889.06;655582;1277;139899;-80
2022/08/17 02:23:03;;;;;;;32.50;21.10;;;;;;;22.68;100.00;99880.83;655835;1277;139772;-80
2022/08/17 02:38:09;;;;;;;30.40;20.20;;;;;;;22.61;100.00;99885.69;656262;1277;140155;-80
2022/08/17 02:53:13;;;;;;;24.40;17.20;;;;;;;22.37;100.00;99880.66;656741;1277;140104;-80
2022/08/17 03:08:18;;;;;;;21.20;16.50;;;;;;;22.25;100.00;99874.23;657283;1277;140515;-80
2022/08/17 03:23:24;;;;;;;23.50;17.10;;;;;;;22.17;100.00;99881.05;658809;1277;141192;-80
2022/08/17 03:38:27;;;;;;;23.70;17.00;;;;;;;22.14;100.00;99889.89;658354;1276;140621;-80
2022/08/17 04:09:14;;;;;;;23.20;16.60;;;;;;;21.98;100.00;99900.15;657083;1277;140167;-79
2022/08/17 04:24:17;;;;;;;24.00;16.80;;;;;;;21.94;100.00;99907.08;657762;1277;141141;-80
2022/08/17 04:39:23;;;;;;;27.10;17.60;;;;;;;22.24;100.00;99912.77;658057;1277;140435;-79
2022/08/17 04:54:27;;;;;;;20.10;14.40;;;;;;;22.59;100.00;99916.60;657029;1276;139632;-80
2022/08/17 05:09:31;;;;;;;25.00;17.10;;;;;;;23.02;100.00;99926.52;656949;1278;139480;-80
2022/08/17 05:24:35;;;;;;;32.40;18.80;;;;;;;23.54;100.00;99928.69;657121;1277;140840;-80
2022/08/17 05:39:45;;;;;;;25.00;16.80;;;;;;;24.21;100.00;99935.46;657091;1277;141647;-80
2022/08/17 05:55:06;;;;;;;23.90;17.30;;;;;;;24.81;100.00;99949.16;656831;1277;140892;-80
2022/08/17 06:10:17;;;;;;;28.00;18.80;;;;;;;25.42;100.00;99945.63;656328;1277;140269;-80
2022/08/17 06:25:45;;;;;;;27.60;19.10;;;;;;;26.00;100.00;99947.34;657608;1277;140038;-81
2022/08/17 06:40:58;;;;;;;29.10;19.00;;;;;;;26.69;100.00;99954.16;656790;1277;140096;-79
2022/08/17 06:56:07;;;;;;;24.10;17.40;;;;;;;27.45;100.00;99960.91;656399;1277;139814;-79
2022/08/17 07:11:19;;;;;;;24.20;16.50;;;;;;;28.06;99.29;99960.07;656605;1277;140148;-80
2022/08/17 07:26:23;;;;;;;20.60;14.60;;;;;;;28.74;96.09;99960.23;655821;1277;139675;-81
2022/08/17 07:41:38;;;;;;;21.90;14.40;;;;;;;29.79;91.72;99962.81;657468;1277;140771;-81
2022/08/17 07:57:07;;;;;;;15.50;11.80;;;;;;;31.15;87.92;99966.59;657569;1276;140855;-80
2022/08/17 08:12:25;;;;;;;15.00;11.20;;;;;;;31.99;82.19;99965.70;658041;1277;140971;-81
2022/08/17 08:28:00;;;;;;;17.60;11.50;;;;;;;33.03;79.19;99971.77;657061;1277;140441;-81
2022/08/17 08:43:34;;;;;;;21.40;11.60;;;;;;;33.41;74.22;99971.05;656854;1277;140780;-83
2022/08/17 08:58:53;;;;;;;14.40;10.10;;;;;;;34.31;72.87;99964.05;657570;1277;140171;-81
2022/08/17 09:14:11;;;;;;;14.50;9.00;;;;;;;34.48;68.87;99965.77;657233;1277;140116;-83
2022/08/17 09:29:34;;;;;;;13.10;9.60;;;;;;;35.26;66.07;99959.48;658346;1277;138741;-80
2022/08/17 09:45:26;;;;;;;21.50;16.50;;;;;;;36.00;64.96;99967.84;656252;1277;1457961;-80
2022/08/17 10:00:36;;;;;;;16.50;8.40;;;;;;;35.24;62.88;99960.09;656631;1277;140090;-80
2022/08/17 10:15:42;;;;;;;11.10;8.20;;;;;;;34.63;61.82;99965.89;660181;1276;138807;-81
2022/08/17 10:30:57;;;;;;;11.80;10.00;;;;;;;35.94;62.32;99959.56;657073;1277;139760;-80
2022/08/17 10:46:42;;;;;;;13.00;8.60;;;;;;;37.12;58.84;99947.99;656277;1277;139458;-80
2022/08/17 11:02:03;;;;;;;8.10;7.30;;;;;;;37.11;56.77;99950.13;657495;1277;139766;-81
2022/08/17 11:17:44;;;;;;;8.00;7.30;;;;;;;38.55;55.85;99943.95;657879;1276;138119;-80
